sensor_id;sensor_type;location;lat;lon;timestamp;P1;durP1;ratioP1;P2;durP2;ratioP2
9821;SDS011;4950;46.042;14.472;2023-05-10T00:02:19;5.10;;;3.58;;
9821;SDS011;4950;46.042;14.472;2023-05-10T00:04:45;7.65;;;3.78;;
9821;SDS011;4950;46.042;14.472;2023-05-10T00:07:12;8.43;;;4.38;;
9821;SDS011;4950;46.042;14.472;2023-05-10T00:09:39;6.53;;;3.78;;
9821;SDS011;4950;46.042;14.472;2023-05-10T00:12:05;7.53;;;4.38;;
9821;SDS011;4950;46.042;14.472;2023-05-10T00:14:32;8.55;;;3.58;;
9821;SDS011;4950;46.042;14.472;2023-05-10T00:16:59;6.45;;;3.58;;
9821;SDS011;4950;46.042;14.472;2023-05-10T00:19:26;8.90;;;3.95;;
9821;SDS011;4950;46.042;14.472;2023-05-10T00:21:53;8.43;;;3.60;;
9821;SDS011;4950;46.042;14.472;2023-05-10T00:24:20;12.13;;;3.92;;
9821;SDS011;4950;46.042;14.472;2023-05-10T00:26:46;8.07;;;3.60;;
9821;SDS011;4950;46.042;14.472;2023-05-10T00:29:13;8.70;;;3.67;;
9821;SDS011;4950;46.042;14.472;2023-05-10T00:31:39;6.18;;;3.63;;
9821;SDS011;4950;46.042;14.472;2023-05-10T00:34:06;7.30;;;4.03;;
9821;SDS011;4950;46.042;14.472;2023-05-10T00:36:34;7.38;;;3.47;;
9821;SDS011;4950;46.042;14.472;2023-05-10T00:39:00;6.20;;;3.97;;
9821;SDS011;4950;46.042;14.472;2023-05-10T00:41:28;6.43;;;3.63;;
9821;SDS011;4950;46.042;14.472;2023-05-10T00:43:56;6.40;;;3.70;;
9821;SDS011;4950;46.042;14.472;2023-05-10T00:46:23;6.20;;;3.53;;
9821;SDS011;4950;46.042;14.472;2023-05-10T00:48:51;8.87;;;3.70;;
9821;SDS011;4950;46.042;14.472;2023-05-10T00:51:18;8.98;;;3.58;;
9821;SDS011;4950;46.042;14.472;2023-05-10T00:53:47;6.10;;;3.60;;
9821;SDS011;4950;46.042;14.472;2023-05-10T00:56:15;8.65;;;4.00;;
9821;SDS011;4950;46.042;14.472;2023-05-10T00:58:42;6.43;;;4.07;;
9821;SDS011;4950;46.042;14.472;2023-05-10T01:01:09;6.60;;;3.78;;
9821;SDS011;4950;46.042;14.472;2023-05-10T01:03:37;6.05;;;3.97;;
9821;SDS011;4950;46.042;14.472;2023-05-10T01:06:05;9.52;;;4.15;;
9821;SDS011;4950;46.042;14.472;2023-05-10T01:08:32;8.45;;;4.25;;
9821;SDS011;4950;46.042;14.472;2023-05-10T01:11:00;6.97;;;4.30;;
9821;SDS011;4950;46.042;14.472;2023-05-10T01:13:30;8.90;;;4.10;;
9821;SDS011;4950;46.042;14.472;2023-05-10T01:15:59;6.63;;;4.18;;
9821;SDS011;4950;46.042;14.472;2023-05-10T01:18:27;6.85;;;4.45;;
9821;SDS011;4950;46.042;14.472;2023-05-10T01:20:57;8.75;;;4.53;;
9821;SDS011;4950;46.042;14.472;2023-05-10T01:23:42;8.02;;;4.10;;
9821;SDS011;4950;46.042;14.472;2023-05-10T01:26:23;9.07;;;4.60;;
9821;SDS011;4950;46.042;14.472;2023-05-10T01:29:14;6.70;;;4.43;;
9821;SDS011;4950;46.042;14.472;2023-05-10T01:32:08;9.57;;;4.43;;
9821;SDS011;4950;46.042;14.472;2023-05-10T01:34:44;11.00;;;4.13;;
9821;SDS011;4950;46.042;14.472;2023-05-10T01:37:18;6.85;;;3.80;;
9821;SDS011;4950;46.042;14.472;2023-05-10T01:39:49;7.75;;;4.30;;
9821;SDS011;4950;46.042;14.472;2023-05-10T01:42:21;10.35;;;4.70;;
9821;SDS011;4950;46.042;14.472;2023-05-10T01:44:53;6.93;;;4.25;;
9821;SDS011;4950;46.042;14.472;2023-05-10T01:47:32;11.82;;;4.82;;
9821;SDS011;4950;46.042;14.472;2023-05-10T01:50:04;12.10;;;4.93;;
9821;SDS011;4950;46.042;14.472;2023-05-10T01:52:33;7.45;;;4.20;;
9821;SDS011;4950;46.042;14.472;2023-05-10T01:55:05;7.78;;;4.20;;
9821;SDS011;4950;46.042;14.472;2023-05-10T01:57:35;6.18;;;4.10;;
9821;SDS011;4950;46.042;14.472;2023-05-10T02:00:05;7.00;;;3.90;;
9821;SDS011;4950;46.042;14.472;2023-05-10T02:02:36;10.07;;;4.45;;
9821;SDS011;4950;46.042;14.472;2023-05-10T02:05:05;5.50;;;3.47;;
9821;SDS011;4950;46.042;14.472;2023-05-10T02:07:33;7.07;;;3.80;;
9821;SDS011;4950;46.042;14.472;2023-05-10T02:10:02;7.00;;;4.47;;
9821;SDS011;4950;46.042;14.472;2023-05-10T02:12:32;6.43;;;3.80;;
9821;SDS011;4950;46.042;14.472;2023-05-10T02:15:02;6.47;;;3.60;;
9821;SDS011;4950;46.042;14.472;2023-05-10T02:17:31;8.10;;;3.55;;
9821;SDS011;4950;46.042;14.472;2023-05-10T02:20:00;5.07;;;3.28;;
9821;SDS011;4950;46.042;14.472;2023-05-10T02:22:30;5.45;;;3.40;;
9821;SDS011;4950;46.042;14.472;2023-05-10T02:24:57;7.35;;;3.50;;
9821;SDS011;4950;46.042;14.472;2023-05-10T02:27:25;4.70;;;3.30;;
9821;SDS011;4950;46.042;14.472;2023-05-10T02:29:54;6.30;;;3.60;;
9821;SDS011;4950;46.042;14.472;2023-05-10T02:32:21;6.80;;;3.80;;
9821;SDS011;4950;46.042;14.472;2023-05-10T02:34:50;8.73;;;3.85;;
9821;SDS011;4950;46.042;14.472;2023-05-10T02:37:20;6.20;;;3.65;;
9821;SDS011;4950;46.042;14.472;2023-05-10T02:39:47;6.90;;;3.80;;
9821;SDS011;4950;46.042;14.472;2023-05-10T02:42:16;5.80;;;3.63;;
9821;SDS011;4950;46.042;14.472;2023-05-10T02:44:45;6.82;;;4.20;;
9821;SDS011;4950;46.042;14.472;2023-05-10T02:47:13;6.68;;;4.13;;
9821;SDS011;4950;46.042;14.472;2023-05-10T02:49:40;8.00;;;4.20;;
9821;SDS011;4950;46.042;14.472;2023-05-10T02:52:07;10.77;;;3.88;;
9821;SDS011;4950;46.042;14.472;2023-05-10T02:54:38;8.85;;;4.13;;
9821;SDS011;4950;46.042;14.472;2023-05-10T02:57:10;9.20;;;4.25;;
9821;SDS011;4950;46.042;14.472;2023-05-10T02:59:44;11.52;;;5.28;;
9821;SDS011;4950;46.042;14.472;2023-05-10T03:02:11;8.02;;;4.72;;
9821;SDS011;4950;46.042;14.472;2023-05-10T03:04:39;6.05;;;4.32;;
9821;SDS011;4950;46.042;14.472;2023-05-10T03:07:05;8.60;;;4.22;;
9821;SDS011;4950;46.042;14.472;2023-05-10T03:09:33;8.18;;;4.45;;
9821;SDS011;4950;46.042;14.472;2023-05-10T03:12:02;8.45;;;4.40;;
9821;SDS011;4950;46.042;14.472;2023-05-10T03:14:36;8.77;;;4.75;;
9821;SDS011;4950;46.042;14.472;2023-05-10T03:17:14;7.65;;;4.63;;
9821;SDS011;4950;46.042;14.472;2023-05-10T03:19:50;9.63;;;4.75;;
9821;SDS011;4950;46.042;14.472;2023-05-10T03:22:21;9.98;;;5.28;;
9821;SDS011;4950;46.042;14.472;2023-05-10T03:24:51;14.23;;;5.45;;
9821;SDS011;4950;46.042;14.472;2023-05-10T03:27:23;11.60;;;5.43;;
9821;SDS011;4950;46.042;14.472;2023-05-10T03:29:52;15.48;;;6.20;;
9821;SDS011;4950;46.042;14.472;2023-05-10T03:32:21;9.40;;;5.05;;
9821;SDS011;4950;46.042;14.472;2023-05-10T03:34:48;14.45;;;5.05;;
9821;SDS011;4950;46.042;14.472;2023-05-10T03:37:15;9.20;;;5.40;;
9821;SDS011;4950;46.042;14.472;2023-05-10T03:39:41;8.25;;;4.55;;
9821;SDS011;4950;46.042;14.472;2023-05-10T03:42:08;11.00;;;5.32;;
9821;SDS011;4950;46.042;14.472;2023-05-10T03:44:38;8.63;;;5.50;;
9821;SDS011;4950;46.042;14.472;2023-05-10T03:47:04;12.63;;;5.55;;
9821;SDS011;4950;46.042;14.472;2023-05-10T03:49:31;13.15;;;5.18;;
9821;SDS011;4950;46.042;14.472;2023-05-10T03:51:58;11.35;;;5.68;;
9821;SDS011;4950;46.042;14.472;2023-05-10T03:54:24;9.57;;;5.10;;
9821;SDS011;4950;46.042;14.472;2023-05-10T03:56:51;8.80;;;5.03;;
9821;SDS011;4950;46.042;14.472;2023-05-10T03:59:17;7.35;;;4.80;;
9821;SDS011;4950;46.042;14.472;2023-05-10T04:01:45;11.85;;;6.15;;
9821;SDS011;4950;46.042;14.472;2023-05-10T04:04:12;14.07;;;5.97;;
9821;SDS011;4950;46.042;14.472;2023-05-10T04:06:38;9.52;;;5.30;;
9821;SDS011;4950;46.042;14.472;2023-05-10T04:09:05;16.92;;;5.40;;
9821;SDS011;4950;46.042;14.472;2023-05-10T04:11:31;10.93;;;5.18;;
9821;SDS011;4950;46.042;14.472;2023-05-10T04:13:58;9.95;;;5.07;;
9821;SDS011;4950;46.042;14.472;2023-05-10T04:16:25;9.73;;;5.45;;
9821;SDS011;4950;46.042;14.472;2023-05-10T04:18:52;8.43;;;5.35;;
9821;SDS011;4950;46.042;14.472;2023-05-10T04:21:19;18.33;;;6.25;;
9821;SDS011;4950;46.042;14.472;2023-05-10T04:23:47;11.30;;;6.05;;
9821;SDS011;4950;46.042;14.472;2023-05-10T04:26:14;13.95;;;6.38;;
9821;SDS011;4950;46.042;14.472;2023-05-10T04:28:40;11.80;;;5.40;;
9821;SDS011;4950;46.042;14.472;2023-05-10T04:31:07;10.00;;;5.40;;
9821;SDS011;4950;46.042;14.472;2023-05-10T04:33:35;15.07;;;5.95;;
9821;SDS011;4950;46.042;14.472;2023-05-10T04:36:04;10.30;;;5.35;;
9821;SDS011;4950;46.042;14.472;2023-05-10T04:38:31;11.63;;;5.50;;
9821;SDS011;4950;46.042;14.472;2023-05-10T04:41:04;8.63;;;5.88;;
9821;SDS011;4950;46.042;14.472;2023-05-10T04:43:32;8.68;;;5.05;;
9821;SDS011;4950;46.042;14.472;2023-05-10T04:45:58;8.15;;;5.07;;
9821;SDS011;4950;46.042;14.472;2023-05-10T04:48:25;8.93;;;5.57;;
9821;SDS011;4950;46.042;14.472;2023-05-10T04:50:52;11.95;;;6.13;;
9821;SDS011;4950;46.042;14.472;2023-05-10T04:53:20;13.35;;;6.57;;
9821;SDS011;4950;46.042;14.472;2023-05-10T04:55:46;11.98;;;6.32;;
9821;SDS011;4950;46.042;14.472;2023-05-10T04:58:13;11.90;;;5.88;;
9821;SDS011;4950;46.042;14.472;2023-05-10T05:00:40;10.98;;;5.80;;
9821;SDS011;4950;46.042;14.472;2023-05-10T05:03:06;12.68;;;6.15;;
9821;SDS011;4950;46.042;14.472;2023-05-10T05:05:33;8.80;;;5.55;;
9821;SDS011;4950;46.042;14.472;2023-05-10T05:08:00;14.40;;;6.72;;
9821;SDS011;4950;46.042;14.472;2023-05-10T05:10:28;9.02;;;5.30;;
9821;SDS011;4950;46.042;14.472;2023-05-10T05:12:55;17.13;;;5.95;;
9821;SDS011;4950;46.042;14.472;2023-05-10T05:15:21;11.88;;;6.00;;
9821;SDS011;4950;46.042;14.472;2023-05-10T05:17:48;11.52;;;6.10;;
9821;SDS011;4950;46.042;14.472;2023-05-10T05:20:15;13.68;;;6.38;;
9821;SDS011;4950;46.042;14.472;2023-05-10T05:22:42;9.52;;;6.18;;
9821;SDS011;4950;46.042;14.472;2023-05-10T05:25:08;8.23;;;5.38;;
9821;SDS011;4950;46.042;14.472;2023-05-10T05:27:36;9.05;;;6.13;;
9821;SDS011;4950;46.042;14.472;2023-05-10T05:30:03;11.75;;;5.38;;
9821;SDS011;4950;46.042;14.472;2023-05-10T05:32:31;10.07;;;5.68;;
9821;SDS011;4950;46.042;14.472;2023-05-10T05:34:58;12.90;;;6.00;;
9821;SDS011;4950;46.042;14.472;2023-05-10T05:37:24;10.52;;;6.28;;
9821;SDS011;4950;46.042;14.472;2023-05-10T05:39:51;8.18;;;5.80;;
9821;SDS011;4950;46.042;14.472;2023-05-10T05:42:19;17.33;;;6.47;;
9821;SDS011;4950;46.042;14.472;2023-05-10T05:44:47;11.65;;;6.20;;
9821;SDS011;4950;46.042;14.472;2023-05-10T05:47:14;10.70;;;6.15;;
9821;SDS011;4950;46.042;14.472;2023-05-10T05:49:40;12.38;;;7.28;;
9821;SDS011;4950;46.042;14.472;2023-05-10T05:52:07;16.25;;;7.65;;
9821;SDS011;4950;46.042;14.472;2023-05-10T05:54:33;11.38;;;6.65;;
9821;SDS011;4950;46.042;14.472;2023-05-10T05:57:00;15.57;;;7.13;;
9821;SDS011;4950;46.042;14.472;2023-05-10T05:59:27;16.80;;;7.18;;
9821;SDS011;4950;46.042;14.472;2023-05-10T06:01:55;11.18;;;6.45;;
9821;SDS011;4950;46.042;14.472;2023-05-10T06:04:21;11.07;;;6.40;;
9821;SDS011;4950;46.042;14.472;2023-05-10T06:06:48;14.43;;;6.45;;
9821;SDS011;4950;46.042;14.472;2023-05-10T06:09:15;12.77;;;7.15;;
9821;SDS011;4950;46.042;14.472;2023-05-10T06:11:41;11.82;;;6.95;;
9821;SDS011;4950;46.042;14.472;2023-05-10T06:14:08;13.70;;;6.78;;
9821;SDS011;4950;46.042;14.472;2023-05-10T06:16:34;12.50;;;7.05;;
9821;SDS011;4950;46.042;14.472;2023-05-10T06:19:02;15.80;;;8.00;;
9821;SDS011;4950;46.042;14.472;2023-05-10T06:21:29;13.98;;;7.30;;
9821;SDS011;4950;46.042;14.472;2023-05-10T06:23:58;11.85;;;7.40;;
9821;SDS011;4950;46.042;14.472;2023-05-10T06:26:25;17.88;;;7.38;;
9821;SDS011;4950;46.042;14.472;2023-05-10T06:28:52;21.45;;;7.10;;
9821;SDS011;4950;46.042;14.472;2023-05-10T06:31:18;17.58;;;7.97;;
9821;SDS011;4950;46.042;14.472;2023-05-10T06:33:45;16.38;;;7.03;;
9821;SDS011;4950;46.042;14.472;2023-05-10T06:36:13;21.52;;;6.97;;
9821;SDS011;4950;46.042;14.472;2023-05-10T06:38:39;13.70;;;7.18;;
9821;SDS011;4950;46.042;14.472;2023-05-10T06:41:06;15.38;;;7.38;;
9821;SDS011;4950;46.042;14.472;2023-05-10T06:43:33;13.52;;;7.80;;
9821;SDS011;4950;46.042;14.472;2023-05-10T06:45:59;15.25;;;7.82;;
9821;SDS011;4950;46.042;14.472;2023-05-10T06:48:26;18.27;;;6.63;;
9821;SDS011;4950;46.042;14.472;2023-05-10T06:50:53;16.35;;;7.40;;
9821;SDS011;4950;46.042;14.472;2023-05-10T06:53:21;15.95;;;7.43;;
9821;SDS011;4950;46.042;14.472;2023-05-10T06:55:48;14.05;;;7.40;;
9821;SDS011;4950;46.042;14.472;2023-05-10T06:58:15;14.45;;;6.32;;
9821;SDS011;4950;46.042;14.472;2023-05-10T07:00:42;12.02;;;7.50;;
9821;SDS011;4950;46.042;14.472;2023-05-10T07:03:10;12.50;;;7.07;;
9821;SDS011;4950;46.042;14.472;2023-05-10T07:05:37;15.63;;;7.18;;
9821;SDS011;4950;46.042;14.472;2023-05-10T07:08:04;15.48;;;6.70;;
9821;SDS011;4950;46.042;14.472;2023-05-10T07:10:32;19.13;;;7.22;;
9821;SDS011;4950;46.042;14.472;2023-05-10T07:12:59;10.85;;;6.03;;
9821;SDS011;4950;46.042;14.472;2023-05-10T07:15:26;11.80;;;6.70;;
9821;SDS011;4950;46.042;14.472;2023-05-10T07:17:53;11.15;;;6.50;;
9821;SDS011;4950;46.042;14.472;2023-05-10T07:20:19;9.85;;;6.05;;
9821;SDS011;4950;46.042;14.472;2023-05-10T07:22:46;14.73;;;6.90;;
9821;SDS011;4950;46.042;14.472;2023-05-10T07:25:12;12.35;;;6.30;;
9821;SDS011;4950;46.042;14.472;2023-05-10T07:27:40;9.70;;;6.00;;
9821;SDS011;4950;46.042;14.472;2023-05-10T07:30:07;10.32;;;5.40;;
9821;SDS011;4950;46.042;14.472;2023-05-10T07:32:35;8.20;;;5.28;;
9821;SDS011;4950;46.042;14.472;2023-05-10T07:35:01;8.00;;;5.00;;
9821;SDS011;4950;46.042;14.472;2023-05-10T07:37:28;10.60;;;5.63;;
9821;SDS011;4950;46.042;14.472;2023-05-10T07:39:55;9.70;;;6.00;;
9821;SDS011;4950;46.042;14.472;2023-05-10T07:42:21;10.80;;;5.47;;
9821;SDS011;4950;46.042;14.472;2023-05-10T07:44:49;10.43;;;5.45;;
9821;SDS011;4950;46.042;14.472;2023-05-10T07:47:16;13.68;;;5.78;;
9821;SDS011;4950;46.042;14.472;2023-05-10T07:49:42;10.63;;;6.35;;
9821;SDS011;4950;46.042;14.472;2023-05-10T07:52:09;8.70;;;5.63;;
9821;SDS011;4950;46.042;14.472;2023-05-10T07:54:36;10.57;;;5.55;;
9821;SDS011;4950;46.042;14.472;2023-05-10T07:57:03;11.98;;;6.20;;
9821;SDS011;4950;46.042;14.472;2023-05-10T07:59:29;12.32;;;6.30;;
9821;SDS011;4950;46.042;14.472;2023-05-10T08:01:59;11.02;;;5.80;;
9821;SDS011;4950;46.042;14.472;2023-05-10T08:04:26;10.02;;;5.85;;
9821;SDS011;4950;46.042;14.472;2023-05-10T08:06:53;12.60;;;5.68;;
9821;SDS011;4950;46.042;14.472;2023-05-10T08:09:19;10.70;;;5.80;;
9821;SDS011;4950;46.042;14.472;2023-05-10T08:11:48;12.85;;;6.75;;
9821;SDS011;4950;46.042;14.472;2023-05-10T08:14:15;10.40;;;5.38;;
9821;SDS011;4950;46.042;14.472;2023-05-10T08:16:42;10.27;;;6.10;;
9821;SDS011;4950;46.042;14.472;2023-05-10T08:19:10;11.10;;;5.32;;
9821;SDS011;4950;46.042;14.472;2023-05-10T08:21:36;10.00;;;5.10;;
9821;SDS011;4950;46.042;14.472;2023-05-10T08:24:05;9.05;;;5.57;;
9821;SDS011;4950;46.042;14.472;2023-05-10T08:26:32;12.02;;;5.18;;
9821;SDS011;4950;46.042;14.472;2023-05-10T08:28:59;8.45;;;5.15;;
9821;SDS011;4950;46.042;14.472;2023-05-10T08:31:26;13.73;;;5.88;;
9821;SDS011;4950;46.042;14.472;2023-05-10T08:33:52;11.75;;;5.72;;
9821;SDS011;4950;46.042;14.472;2023-05-10T08:36:20;10.15;;;5.20;;
9821;SDS011;4950;46.042;14.472;2023-05-10T08:38:49;10.38;;;5.60;;
9821;SDS011;4950;46.042;14.472;2023-05-10T08:41:16;16.50;;;5.78;;
9821;SDS011;4950;46.042;14.472;2023-05-10T08:46:12;11.60;;;5.32;;
9821;SDS011;4950;46.042;14.472;2023-05-10T08:48:43;14.63;;;5.60;;
9821;SDS011;4950;46.042;14.472;2023-05-10T08:51:11;13.15;;;6.05;;
9821;SDS011;4950;46.042;14.472;2023-05-10T08:53:41;9.10;;;5.18;;
9821;SDS011;4950;46.042;14.472;2023-05-10T08:56:08;11.30;;;5.78;;
9821;SDS011;4950;46.042;14.472;2023-05-10T08:58:35;12.50;;;5.18;;
9821;SDS011;4950;46.042;14.472;2023-05-10T09:01:02;12.15;;;5.68;;
9821;SDS011;4950;46.042;14.472;2023-05-10T09:03:29;8.85;;;5.30;;
9821;SDS011;4950;46.042;14.472;2023-05-10T09:05:57;9.80;;;4.95;;
9821;SDS011;4950;46.042;14.472;2023-05-10T09:08:24;8.60;;;5.75;;
9821;SDS011;4950;46.042;14.472;2023-05-10T09:10:53;7.60;;;4.78;;
9821;SDS011;4950;46.042;14.472;2023-05-10T09:13:21;11.95;;;6.38;;
9821;SDS011;4950;46.042;14.472;2023-05-10T09:15:49;10.33;;;5.63;;
9821;SDS011;4950;46.042;14.472;2023-05-10T09:18:16;13.70;;;5.93;;
9821;SDS011;4950;46.042;14.472;2023-05-10T09:20:43;10.80;;;5.35;;
9821;SDS011;4950;46.042;14.472;2023-05-10T09:23:10;10.80;;;5.60;;
9821;SDS011;4950;46.042;14.472;2023-05-10T09:25:36;10.27;;;4.95;;
9821;SDS011;4950;46.042;14.472;2023-05-10T09:28:07;10.98;;;5.53;;
9821;SDS011;4950;46.042;14.472;2023-05-10T09:30:34;8.80;;;4.63;;
9821;SDS011;4950;46.042;14.472;2023-05-10T09:33:02;10.07;;;5.22;;
9821;SDS011;4950;46.042;14.472;2023-05-10T09:35:29;11.77;;;5.38;;
9821;SDS011;4950;46.042;14.472;2023-05-10T09:40:50;15.23;;;6.90;;
9821;SDS011;4950;46.042;14.472;2023-05-10T09:43:20;14.68;;;6.72;;
9821;SDS011;4950;46.042;14.472;2023-05-10T09:45:48;13.18;;;7.78;;
9821;SDS011;4950;46.042;14.472;2023-05-10T09:48:15;17.67;;;9.85;;
9821;SDS011;4950;46.042;14.472;2023-05-10T09:50:41;16.00;;;8.75;;
9821;SDS011;4950;46.042;14.472;2023-05-10T09:53:08;14.45;;;9.27;;
9821;SDS011;4950;46.042;14.472;2023-05-10T09:55:39;19.20;;;9.73;;
9821;SDS011;4950;46.042;14.472;2023-05-10T09:58:06;16.45;;;9.98;;
9821;SDS011;4950;46.042;14.472;2023-05-10T10:00:37;16.55;;;9.95;;
9821;SDS011;4950;46.042;14.472;2023-05-10T10:03:05;24.77;;;9.30;;
9821;SDS011;4950;46.042;14.472;2023-05-10T10:05:32;11.20;;;8.00;;
9821;SDS011;4950;46.042;14.472;2023-05-10T10:08:00;11.32;;;7.75;;
9821;SDS011;4950;46.042;14.472;2023-05-10T10:10:29;15.80;;;9.30;;
9821;SDS011;4950;46.042;14.472;2023-05-10T10:12:57;16.42;;;8.38;;
9821;SDS011;4950;46.042;14.472;2023-05-10T10:15:24;22.48;;;8.88;;
9821;SDS011;4950;46.042;14.472;2023-05-10T10:17:53;14.30;;;8.05;;
9821;SDS011;4950;46.042;14.472;2023-05-10T10:20:20;16.02;;;9.05;;
9821;SDS011;4950;46.042;14.472;2023-05-10T10:22:49;15.32;;;8.68;;
9821;SDS011;4950;46.042;14.472;2023-05-10T10:25:16;14.00;;;8.98;;
9821;SDS011;4950;46.042;14.472;2023-05-10T10:27:47;18.38;;;9.15;;
9821;SDS011;4950;46.042;14.472;2023-05-10T10:30:23;14.35;;;7.85;;
9821;SDS011;4950;46.042;14.472;2023-05-10T10:33:01;14.75;;;7.70;;
9821;SDS011;4950;46.042;14.472;2023-05-10T10:35:39;12.48;;;8.18;;
9821;SDS011;4950;46.042;14.472;2023-05-10T10:38:07;14.82;;;7.90;;
9821;SDS011;4950;46.042;14.472;2023-05-10T10:40:34;12.02;;;8.60;;
9821;SDS011;4950;46.042;14.472;2023-05-10T10:51:07;11.90;;;8.45;;
9821;SDS011;4950;46.042;14.472;2023-05-10T10:53:34;13.90;;;8.52;;
9821;SDS011;4950;46.042;14.472;2023-05-10T10:56:07;14.30;;;9.68;;
9821;SDS011;4950;46.042;14.472;2023-05-10T10:58:36;11.80;;;8.88;;
9821;SDS011;4950;46.042;14.472;2023-05-10T11:01:13;13.73;;;8.95;;
9821;SDS011;4950;46.042;14.472;2023-05-10T11:04:16;12.15;;;8.20;;
9821;SDS011;4950;46.042;14.472;2023-05-10T11:06:44;14.70;;;8.85;;
9821;SDS011;4950;46.042;14.472;2023-05-10T11:09:11;14.10;;;8.60;;
9821;SDS011;4950;46.042;14.472;2023-05-10T11:11:48;14.27;;;8.52;;
9821;SDS011;4950;46.042;14.472;2023-05-10T11:14:19;13.15;;;8.63;;
9821;SDS011;4950;46.042;14.472;2023-05-10T11:16:46;17.02;;;9.07;;
9821;SDS011;4950;46.042;14.472;2023-05-10T11:19:14;13.95;;;8.27;;
9821;SDS011;4950;46.042;14.472;2023-05-10T11:24:12;11.35;;;7.88;;
9821;SDS011;4950;46.042;14.472;2023-05-10T11:26:39;14.50;;;8.20;;
9821;SDS011;4950;46.042;14.472;2023-05-10T11:29:06;14.70;;;8.32;;
9821;SDS011;4950;46.042;14.472;2023-05-10T11:31:34;13.15;;;8.70;;
9821;SDS011;4950;46.042;14.472;2023-05-10T11:34:01;12.75;;;8.70;;
9821;SDS011;4950;46.042;14.472;2023-05-10T11:36:31;13.45;;;8.68;;
9821;SDS011;4950;46.042;14.472;2023-05-10T11:39:00;15.45;;;9.02;;
9821;SDS011;4950;46.042;14.472;2023-05-10T11:41:27;14.52;;;9.57;;
9821;SDS011;4950;46.042;14.472;2023-05-10T11:43:55;11.98;;;7.72;;
9821;SDS011;4950;46.042;14.472;2023-05-10T11:46:24;13.90;;;8.00;;
9821;SDS011;4950;46.042;14.472;2023-05-10T11:48:52;10.97;;;7.03;;
9821;SDS011;4950;46.042;14.472;2023-05-10T11:51:22;15.75;;;8.65;;
9821;SDS011;4950;46.042;14.472;2023-05-10T11:53:52;14.20;;;9.50;;
9821;SDS011;4950;46.042;14.472;2023-05-10T11:56:20;14.75;;;9.13;;
9821;SDS011;4950;46.042;14.472;2023-05-10T11:58:52;12.63;;;8.98;;
9821;SDS011;4950;46.042;14.472;2023-05-10T12:01:20;16.20;;;8.68;;
9821;SDS011;4950;46.042;14.472;2023-05-10T12:03:47;13.48;;;8.65;;
9821;SDS011;4950;46.042;14.472;2023-05-10T12:08:44;12.70;;;8.55;;
9821;SDS011;4950;46.042;14.472;2023-05-10T12:11:13;12.23;;;8.23;;
9821;SDS011;4950;46.042;14.472;2023-05-10T12:13:43;13.57;;;8.13;;
9821;SDS011;4950;46.042;14.472;2023-05-10T12:16:13;14.57;;;7.65;;
9821;SDS011;4950;46.042;14.472;2023-05-10T12:18:41;16.60;;;7.55;;
9821;SDS011;4950;46.042;14.472;2023-05-10T12:21:09;11.05;;;7.03;;
9821;SDS011;4950;46.042;14.472;2023-05-10T12:23:37;13.00;;;7.57;;
9821;SDS011;4950;46.042;14.472;2023-05-10T12:26:04;11.45;;;7.22;;
9821;SDS011;4950;46.042;14.472;2023-05-10T12:28:32;9.43;;;7.03;;
9821;SDS011;4950;46.042;14.472;2023-05-10T12:31:00;11.55;;;6.95;;
9821;SDS011;4950;46.042;14.472;2023-05-10T12:33:27;11.55;;;7.50;;
9821;SDS011;4950;46.042;14.472;2023-05-10T12:36:01;11.13;;;7.85;;
9821;SDS011;4950;46.042;14.472;2023-05-10T12:38:29;10.27;;;7.20;;
9821;SDS011;4950;46.042;14.472;2023-05-10T12:40:59;13.07;;;7.43;;
9821;SDS011;4950;46.042;14.472;2023-05-10T12:43:27;12.07;;;8.10;;
9821;SDS011;4950;46.042;14.472;2023-05-10T12:45:55;11.45;;;7.97;;
9821;SDS011;4950;46.042;14.472;2023-05-10T12:48:22;12.70;;;7.95;;
9821;SDS011;4950;46.042;14.472;2023-05-10T12:50:49;14.63;;;8.63;;
9821;SDS011;4950;46.042;14.472;2023-05-10T12:53:16;9.63;;;6.68;;
9821;SDS011;4950;46.042;14.472;2023-05-10T12:55:43;14.30;;;8.02;;
9821;SDS011;4950;46.042;14.472;2023-05-10T12:58:10;12.88;;;8.50;;
9821;SDS011;4950;46.042;14.472;2023-05-10T13:00:37;15.18;;;8.95;;
9821;SDS011;4950;46.042;14.472;2023-05-10T13:03:05;16.55;;;8.93;;
9821;SDS011;4950;46.042;14.472;2023-05-10T13:05:32;15.52;;;8.32;;
9821;SDS011;4950;46.042;14.472;2023-05-10T13:07:59;12.77;;;8.52;;
9821;SDS011;4950;46.042;14.472;2023-05-10T13:10:25;11.75;;;7.82;;
9821;SDS011;4950;46.042;14.472;2023-05-10T13:12:52;14.23;;;9.75;;
9821;SDS011;4950;46.042;14.472;2023-05-10T13:15:19;13.43;;;9.77;;
9821;SDS011;4950;46.042;14.472;2023-05-10T13:17:45;13.40;;;9.07;;
9821;SDS011;4950;46.042;14.472;2023-05-10T13:20:13;19.15;;;10.30;;
9821;SDS011;4950;46.042;14.472;2023-05-10T13:22:40;11.90;;;8.80;;
9821;SDS011;4950;46.042;14.472;2023-05-10T13:25:07;15.73;;;9.57;;
9821;SDS011;4950;46.042;14.472;2023-05-10T13:27:34;12.27;;;8.98;;
9821;SDS011;4950;46.042;14.472;2023-05-10T13:30:01;14.65;;;9.57;;
9821;SDS011;4950;46.042;14.472;2023-05-10T13:32:28;13.35;;;9.18;;
9821;SDS011;4950;46.042;14.472;2023-05-10T13:34:54;13.35;;;9.20;;
9821;SDS011;4950;46.042;14.472;2023-05-10T13:37:24;13.85;;;8.52;;
9821;SDS011;4950;46.042;14.472;2023-05-10T13:39:50;12.45;;;8.85;;
9821;SDS011;4950;46.042;14.472;2023-05-10T13:42:17;13.00;;;8.95;;
9821;SDS011;4950;46.042;14.472;2023-05-10T13:44:44;15.73;;;9.52;;
9821;SDS011;4950;46.042;14.472;2023-05-10T13:47:10;13.05;;;8.95;;
9821;SDS011;4950;46.042;14.472;2023-05-10T13:49:37;11.10;;;8.45;;
9821;SDS011;4950;46.042;14.472;2023-05-10T13:52:04;12.52;;;9.15;;
9821;SDS011;4950;46.042;14.472;2023-05-10T13:54:33;16.38;;;9.75;;
9821;SDS011;4950;46.042;14.472;2023-05-10T13:57:00;15.98;;;11.18;;
9821;SDS011;4950;46.042;14.472;2023-05-10T13:59:28;19.58;;;10.88;;
9821;SDS011;4950;46.042;14.472;2023-05-10T14:04:23;14.48;;;9.90;;
9821;SDS011;4950;46.042;14.472;2023-05-10T14:06:49;12.18;;;8.85;;
9821;SDS011;4950;46.042;14.472;2023-05-10T14:09:17;13.07;;;9.52;;
9821;SDS011;4950;46.042;14.472;2023-05-10T14:11:46;15.80;;;10.23;;
9821;SDS011;4950;46.042;14.472;2023-05-10T14:14:12;15.82;;;10.32;;
9821;SDS011;4950;46.042;14.472;2023-05-10T14:16:41;14.88;;;9.57;;
9821;SDS011;4950;46.042;14.472;2023-05-10T14:19:08;15.07;;;10.02;;
9821;SDS011;4950;46.042;14.472;2023-05-10T14:21:35;14.25;;;9.77;;
9821;SDS011;4950;46.042;14.472;2023-05-10T14:24:02;14.90;;;11.02;;
9821;SDS011;4950;46.042;14.472;2023-05-10T14:26:28;12.60;;;8.68;;
9821;SDS011;4950;46.042;14.472;2023-05-10T14:28:56;13.40;;;8.82;;
9821;SDS011;4950;46.042;14.472;2023-05-10T14:31:23;17.95;;;13.40;;
9821;SDS011;4950;46.042;14.472;2023-05-10T14:33:50;15.68;;;10.40;;
9821;SDS011;4950;46.042;14.472;2023-05-10T14:36:17;15.30;;;10.23;;
9821;SDS011;4950;46.042;14.472;2023-05-10T14:38:44;23.08;;;11.60;;
9821;SDS011;4950;46.042;14.472;2023-05-10T14:41:10;13.13;;;9.10;;
9821;SDS011;4950;46.042;14.472;2023-05-10T14:43:39;13.73;;;10.27;;
9821;SDS011;4950;46.042;14.472;2023-05-10T14:46:07;13.38;;;9.40;;
9821;SDS011;4950;46.042;14.472;2023-05-10T14:48:34;13.90;;;10.95;;
9821;SDS011;4950;46.042;14.472;2023-05-10T14:51:00;15.82;;;10.98;;
9821;SDS011;4950;46.042;14.472;2023-05-10T14:53:28;13.48;;;10.25;;
9821;SDS011;4950;46.042;14.472;2023-05-10T14:55:55;14.32;;;9.90;;
9821;SDS011;4950;46.042;14.472;2023-05-10T14:58:22;14.75;;;10.32;;
9821;SDS011;4950;46.042;14.472;2023-05-10T15:00:48;14.98;;;9.35;;
9821;SDS011;4950;46.042;14.472;2023-05-10T15:03:16;16.33;;;10.18;;
9821;SDS011;4950;46.042;14.472;2023-05-10T15:05:43;15.65;;;10.93;;
9821;SDS011;4950;46.042;14.472;2023-05-10T15:08:10;14.13;;;9.77;;
9821;SDS011;4950;46.042;14.472;2023-05-10T15:10:37;14.45;;;9.90;;
9821;SDS011;4950;46.042;14.472;2023-05-10T15:13:04;15.55;;;9.45;;
9821;SDS011;4950;46.042;14.472;2023-05-10T15:15:30;14.20;;;9.77;;
9821;SDS011;4950;46.042;14.472;2023-05-10T15:17:57;14.00;;;9.20;;